Terminal Aerodrome Forecast
Issued by NWS Sioux Falls, SD

Home | Current Version | Previous Version | Graphics & Text | Print | Product List | Glossary On
Versions: 1 2 3 4 5 6 7 8 9 10 11 12 13 14 15 16 17
588
FTUS43 KFSD 211429 AAA
TAFHON
TAF AMD
KHON 211429Z 2114/2212 35008KT 2SM -SN OVC020
     FM211800 36008KT 5SM -SN OVC035
     FM212000 01010G18KT P6SM VCSH OVC040
     FM220500 36012G21KT P6SM VCSH OVC030=

USA.gov is the U.S. government's official web portal to all federal, state and local government web resources and services.